Yukon, MO

12:30 AM CDT on May 06, 2015 (GMT -0500)
Country | | Change Station
CLOSE
Current Station
Personal Weather Station
Location: Elk Creek, MO
Elevation: 1332 ft
Nearby Weather Stations

Elev 1332 ft 37.15 °N, 91.91 °W | Updated 3 minutes ago

Clear
Clear
63.3 °F
Feels Like 63.3 °F
N
2.0
Wind Variable Wind from SSE
Gusts 0.0 mph

Today
High -- | Low -- °F
--% Chance of Precip.
Yesterday
High -- | Low -- °F
Precip. -- in
6:07 AM 8:00 PM
Waning Gibbous, 95% visible
Pressure 30.11 in
Visibility 10.0 miles
Clouds Clear
Dew Point 54 °F
Humidity 72%
Rainfall 0.00 in
Snow Depth Not available.
UV 0 out of 12
Pollen 10.70 out of 12
Air Quality Not available.
Flu Activity Sporadic
METAR KUNO 060453Z AUTO 17008KT 10SM CLR 19/11 A3014 RMK AO2 SLP196 T01940106

More Conditions Fewer Conditions

Pressure 30.11 in
Visibility 10.0 miles
Clouds Clear
Dew Point 54 °F
Humidity 72%
Rainfall 0.00 in
Snow Depth Not available.
UV 0 out of 12
Pollen 10.70 out of 12
Air Quality Not available.
Flu Activity Sporadic
METAR KUNO 060453Z AUTO 17008KT 10SM CLR 19/11 A3014 RMK AO2 SLP196 T01940106

More Conditions Fewer Conditions

10-Day Weather Forecast

Almanac

Astronomy

May. 06, 2015 Rise Set
Actual Time
Civil Twilight
Nautical Twilight
Astronomical Twilight
Moon
Length of Visible Light
Length of Day
Tomorrow will be .
, % of the Moon is Illuminated

Today's Extremes

State Highs State Lows

Community

WunderPhotos

Upload Photos

1,818,842 photos uploaded!

WunderBlogs® & News

Nearby

Air Quality

  Air Quality AQ Index Pollutant
Not available.

Snow Depth

Station Depth Elevation

Earthquake Activity

City Distance Mag. Time & Date
Minimum magnitude displayed is 2.5.

Coastal Water Temperatures

Place Temperature

Stations

Nearby Weather Stations

Station Location Temp. Windchill Dew Point Humidity Wind Precip. Elev Updated Type